Time;durP1;ratioP1;P1;durP2;ratioP2;P2;SDS_P1;SDS_P2;PMS_P1;PMS_P2;Temp;Humidity;BMP_temperature;BMP_pressure;BME280_temperature;BME280_humidity;BME280_pressure;Samples;Min_cycle;Max_cycle;Signal;HPM_P1;HPM_P2
2024/02/13 00:02:46;;;;;;;32;18.8;;;;;;;6.47;85.5;97923.333333333;;;;
2024/02/13 00:12:46;;;;;;;32;18.8;;;;;;;6.58;85.69;97935;;;;
2024/02/13 00:23:46;;;;;;;32;18.8;;;;;;;6.67;85.4;97951.666666667;;;;
2024/02/13 00:33:48;;;;;;;29;20;;;;;;;6.62;85.41;97960;;;;
2024/02/13 00:43:46;;;;;;;29;20;;;;;;;6.53;85.11;97970;;;;
2024/02/13 00:54:46;;;;;;;29;20;;;;;;;6.4;85.27;97980;;;;
2024/02/13 01:04:48;;;;;;;32.4;18.7;;;;;;;6.17;86.34;97998.333333333;;;;
2024/02/13 01:15:46;;;;;;;32.4;18.7;;;;;;;6.05;86.78;98018.333333333;;;;
2024/02/13 01:26:46;;;;;;;25.6;15.7;;;;;;;5.88;86.01;98031.666666667;;;;
2024/02/13 01:36:46;;;;;;;25.6;15.7;;;;;;;5.7;86.21;98026.666666667;;;;
2024/02/13 01:46:46;;;;;;;25.6;15.7;;;;;;;5.47;86.08;98040;;;;
2024/02/13 01:56:46;;;;;;;21.6;13.1;;;;;;;5.23;85.82;98056.666666667;;;;
2024/02/13 02:07:46;;;;;;;21.6;13.1;;;;;;;5.02;86.09;98066.666666667;;;;
2024/02/13 02:17:48;;;;;;;21.6;13.1;;;;;;;4.78;86.17;98068.333333333;;;;
2024/02/13 02:27:46;;;;;;;20.8;11.7;;;;;;;4.61;86.63;98080;;;;
2024/02/13 02:37:48;;;;;;;20.8;11.7;;;;;;;4.43;86.92;98083.333333333;;;;
2024/02/13 02:48:46;;;;;;;20.8;11.7;;;;;;;4.25;87.47;98096.666666667;;;;
2024/02/13 02:58:46;;;;;;;16.7;9.6;;;;;;;4.18;87.8;98120;;;;
2024/02/13 03:09:46;;;;;;;16.7;9.6;;;;;;;4.12;88.26;98136.666666667;;;;
2024/02/13 03:20:46;;;;;;;16.7;9.6;;;;;;;4.05;88.58;98146.666666667;;;;
2024/02/13 03:31:46;;;;;;;16.2;7.9;;;;;;;4.02;89.08;98161.666666667;;;;
2024/02/13 03:42:46;;;;;;;16.2;7.9;;;;;;;4;89.38;98176.666666667;;;;
2024/02/13 03:52:46;;;;;;;16.2;7.9;;;;;;;3.93;89.29;98183.333333333;;;;
2024/02/13 04:02:46;;;;;;;13;7.8;;;;;;;3.85;89.16;98195;;;;
2024/02/13 04:12:46;;;;;;;13;7.8;;;;;;;3.75;88.93;98205;;;;
2024/02/13 04:22:46;;;;;;;13;7.8;;;;;;;3.72;89.22;98211.666666667;;;;
2024/02/13 04:33:46;;;;;;;16.6;8.1;;;;;;;3.64;88.95;98215;;;;
2024/02/13 04:44:46;;;;;;;16.6;8.1;;;;;;;3.57;89.47;98220;;;;
2024/02/13 04:54:46;;;;;;;16.6;8.1;;;;;;;3.54;89.33;98230;;;;
2024/02/13 05:16:46;;;;;;;15.6;7.4;;;;;;;3.51;89.24;98261.666666667;;;;
2024/02/13 05:26:47;;;;;;;12.6;7.4;;;;;;;3.78;89.9;98281.666666667;;;;
2024/02/13 05:37:47;;;;;;;12.6;7.4;;;;;;;4.18;89.67;98300;;;;
2024/02/13 05:47:48;;;;;;;12.6;7.4;;;;;;;4.39;89.49;98315;;;;
2024/02/13 05:57:46;;;;;;;14.2;8;;;;;;;4.62;89.05;98333.333333333;;;;
2024/02/13 06:08:46;;;;;;;14.2;8;;;;;;;4.85;88.69;98350;;;;
2024/02/13 06:19:46;;;;;;;14.2;8;;;;;;;4.98;87.73;98353.333333333;;;;
2024/02/13 06:30:47;;;;;;;18.7;9.7;;;;;;;5.14;87.74;98373.333333333;;;;
2024/02/13 06:41:46;;;;;;;18.7;9.7;;;;;;;5.21;87.32;98390;;;;
2024/02/13 06:52:50;;;;;;;18.7;9.7;;;;;;;5.31;87.05;98410;;;;
2024/02/13 07:03:46;;;;;;;18.1;10;;;;;;;5.59;87.22;98413.333333333;;;;
2024/02/13 07:13:46;;;;;;;18.1;10;;;;;;;5.66;86.4;98436.666666667;;;;
2024/02/13 07:24:46;;;;;;;22.4;12.8;;;;;;;5.85;86.1;98458.333333333;;;;
2024/02/13 07:34:47;;;;;;;22.4;12.8;;;;;;;5.75;86.15;98473.333333333;;;;
2024/02/13 07:44:47;;;;;;;22.4;12.8;;;;;;;5.78;86.41;98488.333333333;;;;
2024/02/13 07:55:48;;;;;;;21.9;14.1;;;;;;;5.89;86.7;98501.666666667;;;;
2024/02/13 08:06:47;;;;;;;21.9;14.1;;;;;;;6.13;85.97;98498.333333333;;;;
2024/02/13 08:17:46;;;;;;;21.9;14.1;;;;;;;6.37;85.03;98508.333333333;;;;
2024/02/13 08:27:46;;;;;;;24.8;13.8;;;;;;;6.72;84.45;98525;;;;
2024/02/13 08:37:50;;;;;;;24.8;13.8;;;;;;;7;83.72;98543.333333333;;;;
2024/02/13 08:48:46;;;;;;;24.8;13.8;;;;;;;7.11;79.96;98555;;;;
2024/02/13 08:59:46;;;;;;;19.8;11;;;;;;;7.23;77.85;98561.666666667;;;;
2024/02/13 09:09:46;;;;;;;19.8;11;;;;;;;7.27;76.96;98566.666666667;;;;
2024/02/13 09:19:46;;;;;;;19.8;11;;;;;;;7.58;75.85;98571.666666667;;;;
2024/02/13 09:30:47;;;;;;;12.6;7.4;;;;;;;7.66;74.5;98571.666666667;;;;
2024/02/13 09:41:15;;;;;;;12.6;7.4;;;;;;;7.84;74.58;98588.333333333;;;;
2024/02/13 09:51:15;;;;;;;12.6;7.4;;;;;;;7.78;73.92;98591.666666667;;;;
2024/02/13 10:01:16;;;;;;;13.1;7.2;;;;;;;7.71;74.09;98596.666666667;;;;
2024/02/13 10:12:15;;;;;;;13.1;7.2;;;;;;;8.02;73.9;98601.666666667;;;;
2024/02/13 10:23:18;;;;;;;13.1;7.2;;;;;;;8.09;72.82;98608.333333333;;;;
2024/02/13 10:33:15;;;;;;;10.1;6.4;;;;;;;8.43;70.25;98605;;;;
2024/02/13 10:44:20;;;;;;;10.1;6.4;;;;;;;8.74;67.02;98603.333333333;;;;
2024/02/13 10:54:15;;;;;;;9.8;6.1;;;;;;;8.68;69.76;98610;;;;
2024/02/13 11:04:15;;;;;;;9.8;6.1;;;;;;;8.8;70.1;98606.666666667;;;;
2024/02/13 11:15:15;;;;;;;9.8;6.1;;;;;;;8.92;64.63;98603.333333333;;;;
2024/02/13 11:26:15;;;;;;;8.7;5;;;;;;;8.92;61.9;98603.333333333;;;;
2024/02/13 11:36:15;;;;;;;8.7;5;;;;;;;9.08;60.17;98610;;;;
2024/02/13 11:46:15;;;;;;;8.7;5;;;;;;;9.11;60.61;98615;;;;
2024/02/13 11:57:15;;;;;;;6.4;3.7;;;;;;;8.83;59.94;98618.333333333;;;;
2024/02/13 12:07:16;;;;;;;6.4;3.7;;;;;;;8.61;60.07;98618.333333333;;;;
2024/02/13 12:18:17;;;;;;;6.4;3.7;;;;;;;8.56;61.15;98623.333333333;;;;
2024/02/13 12:28:17;;;;;;;7.7;3.2;;;;;;;8.38;60.48;98623.333333333;;;;
2024/02/13 12:38:15;;;;;;;7.7;3.2;;;;;;;8.31;61.8;98635;;;;
2024/02/13 12:49:16;;;;;;;7.7;3.2;;;;;;;8.27;60.83;98641.666666667;;;;
2024/02/13 13:00:16;;;;;;;7.6;3.8;;;;;;;8.66;61.18;98645;;;;
2024/02/13 13:10:19;;;;;;;7.6;3.8;;;;;;;8.59;60.37;98646.666666667;;;;
2024/02/13 13:21:15;;;;;;;7.6;3.8;;;;;;;8.44;61.08;98665;;;;
2024/02/13 13:32:17;;;;;;;6.2;3;;;;;;;8.19;60.94;98683.333333333;;;;
2024/02/13 13:43:15;;;;;;;6.2;3;;;;;;;8.2;60.88;98701.666666667;;;;
2024/02/13 13:54:15;;;;;;;4.9;2.5;;;;;;;7.94;63.52;98716.666666667;;;;
2024/02/13 14:05:17;;;;;;;4.9;2.5;;;;;;;7.94;65.42;98716.666666667;;;;
2024/02/13 14:16:15;;;;;;;4.9;2.5;;;;;;;7.87;66.22;98731.666666667;;;;
2024/02/13 14:26:15;;;;;;;9.1;4.2;;;;;;;7.63;68.3;98745;;;;
2024/02/13 14:36:15;;;;;;;9.1;4.2;;;;;;;7.19;72.64;98771.666666667;;;;
2024/02/13 14:47:16;;;;;;;9.1;4.2;;;;;;;6.85;74.62;98786.666666667;;;;
2024/02/13 14:57:16;;;;;;;9.4;5.2;;;;;;;6.62;75.38;98788.333333333;;;;
2024/02/13 15:08:17;;;;;;;9.4;5.2;;;;;;;6.51;76;98805;;;;
2024/02/13 15:19:15;;;;;;;9.4;5.2;;;;;;;6.31;75.98;98816.666666667;;;;
2024/02/13 15:29:16;;;;;;;10.9;6.1;;;;;;;6.22;76.3;98830;;;;
2024/02/13 15:51:15;;;;;;;10.9;6.1;;;;;;;5.85;78.49;98868.333333333;;;;
2024/02/13 16:01:17;;;;;;;10.8;6;;;;;;;5.79;79.26;98881.666666667;;;;
2024/02/13 16:11:17;;;;;;;10.8;6;;;;;;;5.67;79.94;98896.666666667;;;;
2024/02/13 16:21:15;;;;;;;10.8;6;;;;;;;5.61;80.42;98913.333333333;;;;
2024/02/13 16:32:19;;;;;;;13.5;7.6;;;;;;;5.68;79.5;98931.666666667;;;;
2024/02/13 16:42:15;;;;;;;13.5;7.6;;;;;;;5.43;79.58;98936.666666667;;;;
2024/02/13 16:53:15;;;;;;;13.5;7.6;;;;;;;5.24;79.64;98961.666666667;;;;
2024/02/13 17:04:15;;;;;;;13.1;6.7;;;;;;;4.97;80.9;98976.666666667;;;;
2024/02/13 17:14:15;;;;;;;13.1;6.7;;;;;;;4.89;82.37;98993.333333333;;;;
2024/02/13 17:24:15;;;;;;;15.1;8.6;;;;;;;4.98;82.2;99006.666666667;;;;
2024/02/13 17:35:15;;;;;;;15.1;8.6;;;;;;;5;82.38;99011.666666667;;;;
2024/02/13 17:46:15;;;;;;;15.1;8.6;;;;;;;5.12;81.34;99018.333333333;;;;
2024/02/13 17:56:15;;;;;;;17.9;9.7;;;;;;;5.15;80.67;99018.333333333;;;;
2024/02/13 18:06:15;;;;;;;17.9;9.7;;;;;;;5.2;79.66;99026.666666667;;;;
2024/02/13 18:16:16;;;;;;;17.9;9.7;;;;;;;5.21;78.34;99031.666666667;;;;
2024/02/13 18:26:16;;;;;;;13;7.6;;;;;;;5.19;79.22;99040;;;;
2024/02/13 18:36:16;;;;;;;13;7.6;;;;;;;5.2;79.87;99043.333333333;;;;
2024/02/13 18:47:17;;;;;;;13;7.6;;;;;;;5.16;80.3;99045;;;;
2024/02/13 18:58:16;;;;;;;23;11.4;;;;;;;5.1;81.51;99046.666666667;;;;
2024/02/13 19:08:17;;;;;;;23;11.4;;;;;;;5.17;81.43;99061.666666667;;;;
2024/02/13 19:19:15;;;;;;;23;11.4;;;;;;;5.1;81.07;99073.333333333;;;;
2024/02/13 19:29:16;;;;;;;18.5;11.2;;;;;;;5.11;80.16;99076.666666667;;;;
2024/02/13 19:39:15;;;;;;;18.5;11.2;;;;;;;5.1;79.96;99093.333333333;;;;
2024/02/13 19:50:16;;;;;;;18.5;11.2;;;;;;;5.1;79.09;99098.333333333;;;;
2024/02/13 20:01:15;;;;;;;17.3;10;;;;;;;5.11;78.09;99108.333333333;;;;
2024/02/13 20:11:16;;;;;;;17.3;10;;;;;;;5.17;78.16;99108.333333333;;;;
2024/02/13 20:21:15;;;;;;;17.3;10;;;;;;;5.03;77.45;99108.333333333;;;;
2024/02/13 20:31:15;;;;;;;20.2;10.2;;;;;;;5;76.61;99113.333333333;;;;
2024/02/13 20:41:17;;;;;;;20.2;10.2;;;;;;;5.03;75.48;99118.333333333;;;;
2024/02/13 20:51:15;;;;;;;20.2;10.2;;;;;;;4.95;73.36;99120;;;;
2024/02/13 21:02:16;;;;;;;18.6;9.7;;;;;;;4.79;73.23;99120;;;;
2024/02/13 21:12:16;;;;;;;18.6;9.7;;;;;;;4.69;73.78;99125;;;;
2024/02/13 21:24:20;;;;;;;14.9;8;;;;;;;4.53;74.65;99131.666666667;;;;
2024/02/13 21:33:15;;;;;;;14.9;8;;;;;;;4.37;75.2;99136.666666667;;;;
2024/02/13 21:43:15;;;;;;;14.9;8;;;;;;;4.24;75.67;99143.333333333;;;;
2024/02/13 21:54:15;;;;;;;11.9;6.8;;;;;;;4.16;76.09;99150;;;;
2024/02/13 22:05:15;;;;;;;11.9;6.8;;;;;;;4.01;76.78;99153.333333333;;;;
2024/02/13 22:15:18;;;;;;;11.9;6.8;;;;;;;4;77.85;99165;;;;
2024/02/13 22:26:15;;;;;;;13;8.2;;;;;;;4.06;77.94;99165;;;;
2024/02/13 22:37:16;;;;;;;13;8.2;;;;;;;4.12;78.15;99173.333333333;;;;
2024/02/13 22:48:15;;;;;;;13;8.2;;;;;;;4.13;78.17;99178.333333333;;;;
2024/02/13 22:59:15;;;;;;;16.4;9.9;;;;;;;4.1;78.38;99190;;;;
2024/02/13 23:09:16;;;;;;;16.4;9.9;;;;;;;4.11;78.5;99198.333333333;;;;
2024/02/13 23:19:15;;;;;;;16.4;9.9;;;;;;;4.08;78.81;99201.666666667;;;;
2024/02/13 23:29:16;;;;;;;23.2;11.3;;;;;;;4.05;79.08;99198.333333333;;;;
2024/02/13 23:39:15;;;;;;;23.2;11.3;;;;;;;4.03;79.07;99201.666666667;;;;
2024/02/13 23:50:17;;;;;;;23.2;11.3;;;;;;;3.98;78.9;99206.666666667;;;;
